Cleves, Ohio
Current Conditions -  °F | °C
As of 5:52 PM on Monday 24 Nov 2014 (Local Time) from KCVG Reporting Station
Broken Clouds Broken Clouds  
Wind Chill: 38°   Ceiling: 4500
Heat Index: 44°   Visibility: 10mi
Dew Point: 30°   Wind: 12mph
Humidity: 58%   Direction: 230°SW
Pressure: 29.79"   Gusts: 22mph
Location:  39.16°N, 84.75°W
Report Text: KCVG 242252Z 23010G19KT 10SM BKN045 07/M01 A2979 RMK AO2 SLP084 T00671011
Loading
Personal Weather Stations






























Interactive Weather Map New forecast layout! Learn more

10-Day Weather Forecast

Advertisements
Track Severe Weather on mobile